Fabian Garcia SC Data

Date Time Air Temperature Relative Humidity Dewpoint Windchill Heat Index Wind Speed Wind Dir. Rain Solar Radiation Soil Temperature
2m 2m 3m 3m 10cm
US/Mountain F % F F F MPH deg in MJ/m^2 F
max avg avg
2020-08-01 00:05:00 83.1 32.1 50.3 83.1 83.1 18.0 26.2 18.2 325.0 328.1 0.00 0.0000040 84.4
2020-08-01 00:10:00 76.7 51.7 57.6 76.7 76.7 13.3 16.2 9.5 7.9 324.2 0.00 0.0000182 84.3
2020-08-01 00:15:00 74.1 56.6 57.7 74.1 74.1 9.6 18.9 12.3 0.3 342.1 0.02 0.0000565 84.3
2020-08-01 00:20:00 74.2 53.9 56.4 74.2 74.2 11.5 18.3 13.7 22.7 359.4 0.00 0.0000343 84.2
2020-08-01 00:25:00 74.2 54.9 56.9 74.2 74.2 7.1 11.7 8.3 7.9 17.7 0.00 0.0000020 84.1
2020-08-01 00:30:00 75.0 49.9 55.0 75.0 75.0 9.7 11.3 9.5 4.8 15.2 0.00 0.0000222 84.0
2020-08-01 00:35:00 76.1 46.5 54.1 76.1 76.1 7.4 11.7 8.7 64.6 18.4 0.01 0.0000363 83.9
2020-08-01 00:40:00 77.7 43.1 53.5 77.7 77.7 7.4 18.0 13.4 59.3 50.1 0.00 0.0000162 83.8
2020-08-01 00:45:00 77.9 41.9 52.8 77.9 77.9 12.1 12.8 9.0 46.1 60.3 0.00 0.0000081 83.8
2020-08-01 00:50:00 78.8 39.2 51.9 78.8 78.8 8.5 13.7 9.7 45.0 57.1 0.00 0.0000000 83.7
2020-08-01 00:55:00 79.8 34.2 49.0 79.8 79.8 10.3 12.1 8.3 88.0 80.3 0.00 0.0000000 83.6
2020-08-01 01:00:00 80.0 34.0 49.1 80.0 80.0 11.7 14.4 7.8 99.7 111.5 0.00 0.0000040 83.6
2020-08-01 01:05:00 81.0 29.1 45.8 81.0 81.0 8.8 12.4 8.3 146.0 123.1 0.00 0.0000000 83.5
2020-08-01 01:10:00 80.7 31.5 47.7 80.7 80.7 11.2 12.8 8.9 106.1 131.3 0.00 0.0000000 83.5
2020-08-01 01:15:00 79.9 31.8 47.2 79.9 79.9 8.1 13.3 8.5 123.4 128.4 0.00 0.0000000 83.4
2020-08-01 01:20:00 80.1 30.9 46.6 80.1 80.1 4.9 13.0 8.2 144.1 152.9 0.00 0.0000000 83.3
2020-08-01 01:25:00 80.2 31.0 46.9 80.2 80.2 5.1 10.6 5.6 144.2 163.6 0.00 0.0000000 83.3
2020-08-01 01:30:00 80.7 29.5 46.0 80.7 80.7 5.6 8.0 4.2 238.7 167.9 0.00 0.0000000 83.2
2020-08-01 01:35:00 81.3 29.3 46.3 81.3 81.3 2.6 8.3 2.3 213.6 157.1 0.00 0.0000000 83.1
2020-08-01 01:40:00 80.1 34.1 49.3 80.1 80.1 8.5 9.9 4.6 332.8 311.7 0.00 0.0000000 83.0
2020-08-01 01:45:00 79.9 33.1 48.3 79.9 79.9 5.6 6.5 4.9 254.6 267.2 0.00 0.0000000 83.0
2020-08-01 01:50:00 79.5 33.3 48.1 79.5 79.5 4.9 6.3 5.1 274.2 282.0 0.00 0.0000000 82.9
2020-08-01 01:55:00 78.9 34.9 48.8 78.9 78.9 3.5 6.7 5.0 249.0 267.4 0.00 0.0000000 82.8
2020-08-01 02:00:00 78.5 37.1 50.1 78.5 78.5 3.1 5.6 3.9 5.1 324.1 0.00 0.0000000 82.8
2020-08-01 02:05:00 79.1 35.0 49.1 79.1 79.1 3.7 6.0 3.7 35.1 29.9 0.00 0.0000000 82.7
2020-08-01 02:10:00 79.0 36.9 50.4 79.0 79.0 3.0 4.4 3.5 321.1 357.4 0.00 0.0000000 82.6
2020-08-01 02:15:00 78.0 39.8 51.5 78.0 78.0 2.8 2.8 1.6 206.5 179.7 0.00 0.0000000 82.6
2020-08-01 02:20:00 76.6 42.9 52.3 76.6 76.6 0.0 3.3 1.7 157.4 218.4 0.00 0.0000020 82.5
2020-08-01 02:25:00 76.6 40.2 50.6 76.6 76.6 1.2 1.9 1.1 156.2 281.2 0.00 0.0000000 82.4
2020-08-01 02:30:00 76.1 45.8 53.7 76.1 76.1 3.0 3.1 1.5 326.6 174.1 0.00 0.0000040 82.4
2020-08-01 02:35:00 75.4 46.6 53.5 75.4 75.4 4.0 4.0 3.1 335.0 331.9 0.00 0.0000040 82.3
2020-08-01 02:40:00 75.7 48.0 54.7 75.7 75.7 2.4 4.6 3.3 332.5 338.1 0.00 0.0000101 82.2
2020-08-01 02:45:00 75.8 48.9 55.2 75.8 75.8 3.3 3.7 2.3 331.8 342.6 0.00 0.0000101 82.2
2020-08-01 02:50:00 76.0 47.4 54.5 76.0 76.0 0.0 4.0 1.8 238.8 310.8 0.00 0.0000081 82.1
2020-08-01 02:55:00 75.7 47.2 54.2 75.7 75.7 2.8 2.8 0.4 247.9 249.9 0.00 0.0000101 82.1
2020-08-01 03:00:00 76.0 46.0 53.7 76.0 76.0 3.3 3.5 2.5 316.1 294.5 0.00 0.0000202 82.0
2020-08-01 03:05:00 76.3 42.7 52.0 76.3 76.3 1.2 5.6 3.0 329.7 323.9 0.00 0.0000121 82.0
2020-08-01 03:10:00 76.2 42.7 51.9 76.2 76.2 3.1 3.1 1.6 330.6 326.8 0.00 0.0000101 81.9
2020-08-01 03:15:00 75.7 44.7 52.7 75.7 75.7 5.8 6.3 4.3 326.6 343.8 0.00 0.0000081 81.9
2020-08-01 03:20:00 75.9 44.4 52.7 75.9 75.9 5.5 6.2 5.0 4.6 348.3 0.00 0.0000081 81.8
2020-08-01 03:25:00 76.0 41.5 50.9 76.0 76.0 4.6 6.3 4.5 5.5 1.3 0.00 0.0000020 81.8
2020-08-01 03:30:00 76.5 41.6 51.4 76.5 76.5 2.6 6.0 3.8 341.7 355.6 0.00 0.0000061 81.8
2020-08-01 03:35:00 76.1 41.6 51.1 76.1 76.1 3.8 4.6 3.5 338.4 359.0 0.00 0.0000121 81.7
2020-08-01 03:40:00 76.0 41.7 51.1 76.0 76.0 3.5 4.9 3.6 342.0 329.2 0.00 0.0000162 81.7
2020-08-01 03:45:00 75.6 43.3 51.8 75.6 75.6 1.5 4.2 1.9 142.8 219.9 0.00 0.0000162 81.6
2020-08-01 03:50:00 75.0 46.4 53.1 75.0 75.0 1.0 1.0 0.1 284.2 213.3 0.00 0.0000303 81.6
2020-08-01 03:55:00 74.6 43.5 51.0 74.6 74.6 3.0 5.6 3.6 18.1 322.5 0.00 0.0000202 81.6
2020-08-01 04:00:00 75.1 42.0 50.5 75.1 75.1 3.1 8.1 4.8 282.9 327.7 0.00 0.0000081 81.5
2020-08-01 04:05:00 75.1 42.5 50.7 75.1 75.1 0.0 3.5 1.7 311.2 295.1 0.00 0.0000000 81.5
2020-08-01 04:10:00 75.7 40.1 49.8 75.7 75.7 4.0 6.0 3.3 19.3 17.9 0.00 0.0000040 81.4
2020-08-01 04:15:00 76.6 37.2 48.5 76.6 76.6 6.7 6.7 4.3 24.1 14.9 0.00 0.0000000 81.4
2020-08-01 04:20:00 77.1 37.9 49.5 77.1 77.1 4.7 10.5 6.8 33.2 5.2 0.00 0.0000000 81.3
2020-08-01 04:25:00 76.8 39.1 50.0 76.8 76.8 2.6 4.6 3.4 25.7 33.6 0.00 0.0000000 81.3
2020-08-01 04:30:00 76.2 39.8 50.0 76.2 76.2 1.9 5.6 3.3 28.2 25.9 0.00 0.0000020 81.2
2020-08-01 04:35:00 75.6 41.4 50.5 75.6 75.6 4.2 4.4 3.8 328.8 7.1 0.00 0.0000061 81.2
2020-08-01 04:40:00 75.1 42.6 50.8 75.1 75.1 4.6 5.5 4.3 342.8 3.2 0.00 0.0000020 81.2
2020-08-01 04:45:00 74.8 43.6 51.1 74.8 74.8 2.1 4.4 3.4 297.2 331.5 0.00 0.0000081 81.1
2020-08-01 04:50:00 74.6 45.4 52.1 74.6 74.6 3.8 4.0 2.2 318.2 340.3 0.00 0.0000121 81.1
2020-08-01 04:55:00 73.9 46.3 52.0 73.9 73.9 0.0 4.4 0.6 204.6 316.4 0.00 0.0000121 81.0
2020-08-01 05:00:00 73.3 49.3 53.2 73.3 73.3 1.0 2.4 1.1 287.3 250.1 0.00 0.0000101 81.0
2020-08-01 05:05:00 72.7 49.1 52.4 72.7 72.7 0.0 2.2 1.5 247.9 255.5 0.00 0.0000000 80.9
2020-08-01 05:10:00 72.7 48.2 52.0 72.7 72.7 4.2 4.2 2.1 282.9 278.2 0.00 0.0000020 80.9
2020-08-01 05:15:00 72.3 50.3 52.8 72.3 72.3 3.8 5.1 3.6 243.6 249.2 0.00 0.0000000 80.8
2020-08-01 05:20:00 71.7 53.2 53.7 71.7 71.7 2.8 4.0 2.6 246.0 246.5 0.00 0.0000000 80.8
2020-08-01 05:25:00 71.1 54.1 53.7 71.1 71.1 2.6 3.1 2.3 259.9 239.1 0.00 0.0000000 80.7
2020-08-01 05:30:00 70.8 54.3 53.4 70.8 70.8 2.1 3.1 2.4 290.7 280.4 0.00 0.0000000 80.7
2020-08-01 05:35:00 70.0 59.0 55.0 70.0 70.0 0.0 1.9 0.2 246.8 253.0 0.00 0.0000000 80.6
2020-08-01 05:40:00 69.3 59.8 54.8 69.3 69.3 4.0 4.0 1.4 253.5 249.4 0.00 0.0000000 80.6
2020-08-01 05:45:00 69.4 58.5 54.2 69.4 69.4 3.1 3.8 3.3 275.4 264.5 0.00 0.0000000 80.5
2020-08-01 05:50:00 69.3 59.6 54.6 69.3 69.3 2.8 3.0 2.6 208.6 242.2 0.00 0.0000000 80.5
2020-08-01 05:55:00 69.0 60.4 54.7 69.0 69.0 2.1 3.0 1.4 201.5 231.2 0.00 0.0000000 80.4
2020-08-01 06:00:00 68.8 61.6 55.1 68.8 68.8 0.0 2.8 0.9 140.7 201.3 0.00 0.0000000 80.3
2020-08-01 06:05:00 68.6 61.5 54.8 68.6 68.6 0.0 0.0 0.0 175.9 0.0 0.00 0.0000384 80.3
2020-08-01 06:10:00 68.3 62.2 54.8 68.3 68.3 0.0 0.0 0.0 211.9 0.0 0.00 0.0001818 80.2
2020-08-01 06:15:00 67.8 64.9 55.6 67.8 67.8 0.0 0.0 0.0 145.0 0.0 0.00 0.0003999 80.2
2020-08-01 06:20:00 67.5 65.0 55.3 67.5 67.5 0.0 1.5 0.1 281.9 166.9 0.00 0.0007777 80.1
2020-08-01 06:25:00 67.2 65.0 55.0 67.2 67.2 0.0 0.8 0.0 172.5 159.8 0.00 0.0013413 80.1
2020-08-01 06:30:00 67.5 64.2 55.0 67.5 67.5 0.0 0.0 0.0 168.1 0.0 0.00 0.0020847 80.0
2020-08-01 06:35:00 67.4 67.4 56.2 67.4 67.4 0.0 0.0 0.0 197.6 0.0 0.00 0.0029776 80.0
2020-08-01 06:40:00 67.2 65.9 55.5 67.2 67.2 0.0 0.0 0.0 12.4 0.0 0.00 0.0039514 79.9
2020-08-01 06:45:00 67.8 67.0 56.4 67.8 67.8 0.0 0.0 0.0 161.6 0.0 0.00 0.0071617 79.9
2020-08-01 06:50:00 68.6 63.3 55.6 68.6 68.6 3.1 3.1 0.3 7.1 7.7 0.00 0.0114065 79.8
2020-08-01 06:55:00 69.7 62.4 56.3 69.7 69.7 2.6 3.8 3.4 338.4 340.6 0.00 0.0147404 79.8
2020-08-01 07:00:00 70.2 61.8 56.5 70.2 70.2 0.0 2.4 0.6 282.4 304.4 0.00 0.0194904 79.8
2020-08-01 07:05:00 71.0 59.2 56.1 71.0 71.0 3.8 3.8 0.8 331.0 336.9 0.00 0.0245619 79.7
2020-08-01 07:10:00 71.9 57.1 55.9 71.9 71.9 0.0 5.8 3.4 170.3 332.2 0.00 0.0295990 79.7
2020-08-01 07:15:00 72.5 56.5 56.1 72.5 72.5 1.5 3.3 1.9 210.0 218.6 0.00 0.0339036 79.7
2020-08-01 07:20:00 72.7 58.0 57.0 72.7 72.7 1.7 2.4 1.9 208.9 210.1 0.00 0.0382605 79.6
2020-08-01 07:25:00 72.5 57.9 56.8 72.5 72.5 0.0 2.8 2.0 241.3 219.6 0.00 0.0426220 79.6
2020-08-01 07:30:00 73.2 55.4 56.3 73.2 73.2 1.5 2.8 0.9 82.7 68.8 0.00 0.0473536 79.5
2020-08-01 07:35:00 74.4 53.7 56.5 74.4 74.4 0.0 1.7 0.3 16.2 89.3 0.00 0.0518801 79.5
2020-08-01 07:40:00 74.6 49.1 54.3 74.6 74.6 2.1 3.8 2.8 4.7 18.0 0.00 0.0567060 79.5
2020-08-01 07:45:00 75.1 47.3 53.7 75.1 75.1 4.4 6.2 4.1 10.0 10.2 0.00 0.0615697 79.4
2020-08-01 07:50:00 75.1 47.8 54.0 75.1 75.1 4.4 6.0 5.1 2.3 7.5 0.00 0.0663302 79.4
2020-08-01 07:55:00 75.5 47.4 54.1 75.5 75.5 4.2 7.2 4.8 21.3 5.7 0.00 0.0714289 79.4
2020-08-01 08:00:00 75.5 47.0 53.9 75.5 75.5 5.6 6.2 5.1 5.5 0.8 0.00 0.0763104 79.4
2020-08-01 08:05:00 75.4 47.6 54.1 75.4 75.4 5.5 7.8 5.9 92.5 347.9 0.00 0.0813276 79.3
2020-08-01 08:10:00 75.8 48.6 55.1 75.8 75.8 4.7 6.0 4.6 329.9 3.1 0.00 0.0862539 79.3
2020-08-01 08:15:00 76.3 46.1 54.1 76.3 76.3 5.3 6.3 4.4 5.2 346.4 0.00 0.0916906 79.3
2020-08-01 08:20:00 76.8 45.8 54.3 76.8 76.8 4.4 6.0 4.1 339.1 5.2 0.00 0.0962835 79.3
2020-08-01 08:25:00 77.6 45.2 54.8 77.6 77.6 4.0 4.9 3.9 7.9 4.7 0.00 0.1015215 79.3
2020-08-01 08:30:00 77.9 44.0 54.2 77.9 77.9 4.9 5.1 3.9 343.1 2.8 0.00 0.1066426 79.2
2020-08-01 08:35:00 78.5 44.2 54.9 78.5 78.5 2.6 4.7 3.0 280.2 334.6 0.00 0.1118541 79.2
2020-08-01 08:40:00 78.5 44.6 55.1 78.5 78.5 1.7 3.7 2.3 0.1 273.2 0.00 0.1171449 79.2
2020-08-01 08:45:00 79.0 41.9 53.9 79.0 79.0 5.6 6.5 4.9 342.8 338.9 0.00 0.1221448 79.2
2020-08-01 08:50:00 79.8 43.3 55.6 79.8 79.8 2.6 4.7 2.7 270.5 305.6 0.00 0.1269921 79.2
2020-08-01 08:55:00 80.6 41.4 55.0 80.6 80.5 3.1 6.5 3.2 227.2 318.1 0.00 0.1319326 79.2
2020-08-01 09:00:00 80.7 39.5 53.8 80.7 80.7 4.2 8.1 3.3 310.8 290.6 0.00 0.1362270 79.2
2020-08-01 09:05:00 80.5 41.2 54.7 80.5 80.4 2.6 4.7 3.0 314.4 270.1 0.00 0.1412832 79.2
2020-08-01 09:10:00 80.8 40.4 54.5 80.8 80.6 1.2 6.0 3.5 31.0 310.8 0.00 0.1460830 79.2
2020-08-01 09:15:00 81.4 38.9 54.0 81.4 81.4 4.6 5.8 4.1 24.4 0.6 0.00 0.1510267 79.2
2020-08-01 09:20:00 82.2 39.1 54.9 82.2 82.2 2.6 5.6 3.3 331.9 332.8 0.00 0.1555745 79.2
2020-08-01 09:25:00 82.4 37.3 53.7 82.4 82.4 3.7 6.5 3.3 241.1 290.3 0.00 0.1600448 79.2
2020-08-01 09:30:00 82.6 37.6 54.2 82.6 82.6 3.7 4.0 2.5 277.9 261.0 0.00 0.1649054 79.2
2020-08-01 09:35:00 81.8 39.1 54.5 81.8 81.8 4.6 6.2 4.3 307.7 262.0 0.00 0.1693168 79.2
2020-08-01 09:40:00 81.9 39.8 55.1 81.9 81.9 1.2 5.3 3.8 290.9 248.9 0.00 0.1737103 79.2
2020-08-01 09:45:00 83.4 36.6 54.1 83.4 83.4 5.3 5.3 2.7 275.8 296.0 0.00 0.1782041 79.2
2020-08-01 09:50:00 83.7 35.8 53.8 83.7 83.7 4.6 4.9 3.2 5.2 341.0 0.00 0.1822785 79.2
2020-08-01 09:55:00 83.9 36.1 54.1 83.9 83.9 2.4 6.9 4.0 54.0 24.4 0.00 0.1865966 79.2
2020-08-01 10:00:00 84.5 35.3 54.0 84.5 84.5 3.1 6.7 3.4 19.9 352.9 0.00 0.1906812 79.3
2020-08-01 10:05:00 85.0 36.2 55.2 85.0 85.0 1.7 4.4 2.9 63.6 37.6 0.00 0.1952337 79.3
2020-08-01 10:10:00 85.0 36.1 55.2 85.0 85.0 3.5 5.6 3.8 31.5 57.8 0.00 0.1995559 79.3
2020-08-01 10:15:00 86.0 34.5 54.8 86.0 86.0 4.2 5.6 3.1 328.6 10.2 0.00 0.2032633 79.3
2020-08-01 10:20:00 86.1 34.0 54.5 86.1 86.1 1.3 4.9 2.9 19.7 352.4 0.00 0.2071164 79.3
2020-08-01 10:25:00 86.3 35.1 55.6 86.3 86.3 2.8 6.0 3.5 22.4 13.0 0.00 0.2109261 79.4
2020-08-01 10:30:00 87.3 34.7 56.1 87.3 87.3 0.0 2.6 1.0 146.1 146.3 0.00 0.2149699 79.4
2020-08-01 10:35:00 87.5 33.7 55.5 87.5 87.5 1.3 6.0 3.3 297.6 346.4 0.00 0.2185753 79.5
2020-08-01 10:40:00 87.2 34.1 55.5 87.2 87.2 5.8 7.6 4.4 23.3 13.6 0.00 0.2221118 79.6
2020-08-01 10:45:00 87.6 33.3 55.2 87.6 87.6 3.0 5.5 4.3 18.2 2.5 0.00 0.2258116 79.6
2020-08-01 10:50:00 88.2 33.2 55.6 88.2 88.2 3.5 5.1 3.6 326.3 348.9 0.00 0.2291865 79.7
2020-08-01 10:55:00 88.3 34.4 56.7 88.3 88.3 0.0 4.6 2.4 286.5 320.1 0.00 0.2323709 79.7
2020-08-01 11:00:00 89.6 32.7 56.4 89.6 89.6 3.0 4.6 2.3 99.9 109.9 0.00 0.2357423 79.8
2020-08-01 11:05:00 90.1 31.4 55.7 90.1 90.1 1.2 6.2 3.0 89.5 109.0 0.00 0.2388425 79.9
2020-08-01 11:10:00 90.7 30.5 55.5 90.7 90.7 2.2 4.7 1.7 172.7 155.4 0.00 0.2417595 80.0
2020-08-01 11:15:00 89.1 31.9 55.3 89.1 89.1 2.1 3.7 2.4 234.5 261.8 0.00 0.2444258 80.1
2020-08-01 11:20:00 89.0 32.9 56.1 89.0 89.0 1.3 4.6 2.6 206.6 253.0 0.00 0.2470436 80.2
2020-08-01 11:25:00 90.1 31.2 55.5 90.1 90.1 4.4 6.7 3.5 160.8 189.6 0.00 0.2503841 80.2
2020-08-01 11:30:00 90.6 30.0 54.9 90.6 90.6 4.9 5.6 3.7 138.8 160.4 0.00 0.2524323 80.3
2020-08-01 11:35:00 89.3 31.3 55.0 89.3 89.3 1.9 4.9 3.4 210.6 202.5 0.00 0.2548863 80.4
2020-08-01 11:40:00 90.6 30.7 55.5 90.6 90.6 2.1 3.0 1.2 206.2 197.4 0.00 0.2574234 80.5
2020-08-01 11:45:00 91.3 31.4 56.8 91.3 91.3 1.2 3.8 1.8 225.2 194.1 0.00 0.2592834 80.6
2020-08-01 11:50:00 92.3 29.2 55.7 92.3 92.3 4.6 5.8 2.8 189.3 189.1 0.00 0.2611744 80.8
2020-08-01 11:55:00 91.4 29.3 54.9 91.4 91.4 4.9 7.4 4.6 192.3 188.8 0.00 0.2630730 80.9
2020-08-01 12:00:00 91.1 29.7 55.1 91.1 91.1 3.1 5.6 3.5 187.7 187.3 0.00 0.2646528 81.0
2020-08-01 12:05:00 91.7 29.6 55.4 91.7 91.7 3.3 4.7 2.6 207.7 191.9 0.00 0.2656889 81.1
2020-08-01 12:10:00 91.0 28.2 53.6 91.0 91.0 5.5 5.5 3.9 258.8 196.0 0.00 0.2664163 81.2
2020-08-01 12:15:00 91.4 30.1 55.8 91.4 91.4 2.8 5.6 3.3 158.7 211.2 0.00 0.2666288 81.3
2020-08-01 12:20:00 90.6 28.6 53.5 90.6 90.6 5.1 6.0 3.7 275.5 228.5 0.00 0.2686361 81.4
2020-08-01 12:25:00 89.9 26.0 50.5 89.9 89.9 3.0 7.8 5.1 277.7 253.0 0.00 0.2707064 81.5
2020-08-01 12:30:00 89.8 28.7 53.1 89.8 89.8 2.4 9.7 4.8 306.2 236.3 0.00 0.2713276 81.6
2020-08-01 12:35:00 90.0 25.5 50.1 90.0 90.0 2.6 8.3 4.9 276.3 254.3 0.00 0.2729026 81.8
2020-08-01 12:40:00 91.3 26.8 52.5 91.3 91.3 3.5 7.1 3.1 206.9 200.9 0.00 0.2746457 81.9
2020-08-01 12:45:00 91.3 25.9 51.5 91.3 91.3 0.0 7.4 3.8 218.7 211.6 0.00 0.2755993 82.0
2020-08-01 12:50:00 92.0 24.5 50.7 92.0 92.0 6.9 7.1 4.5 195.1 202.1 0.00 0.2755073 82.1
2020-08-01 12:55:00 92.3 25.3 51.8 92.3 92.3 4.7 7.4 3.6 247.9 230.1 0.00 0.2765757 82.2
2020-08-01 13:00:00 91.5 24.6 50.4 91.5 91.5 7.8 8.8 5.8 238.1 223.1 0.00 0.2770295 82.4
2020-08-01 13:05:00 91.7 24.9 50.7 91.7 91.7 2.2 7.6 4.7 219.2 217.2 0.00 0.2774591 82.5
2020-08-01 13:10:00 91.7 25.9 51.9 91.7 91.7 5.1 7.2 5.0 214.3 226.0 0.00 0.2772574 82.6
2020-08-01 13:15:00 93.4 23.8 51.0 93.4 93.4 3.1 6.0 3.9 103.7 184.8 0.00 0.2777374 82.7
2020-08-01 13:20:00 92.0 25.9 52.1 92.0 92.0 5.6 7.4 4.9 234.3 234.0 0.00 0.2779356 82.9
2020-08-01 13:25:00 93.4 23.7 50.9 93.4 93.4 4.6 7.6 4.2 256.2 199.5 0.00 0.2782519 83.0
2020-08-01 13:30:00 94.7 20.3 47.8 94.7 94.7 2.8 5.3 3.0 164.0 184.0 0.00 0.2783861 83.1
2020-08-01 13:35:00 95.1 18.7 46.0 95.1 95.1 4.0 6.5 4.1 151.2 173.2 0.00 0.2784918 83.2
2020-08-01 13:40:00 94.6 18.9 45.8 94.6 94.6 2.6 6.2 4.0 67.3 171.9 0.00 0.2776386 83.3
2020-08-01 13:45:00 95.0 19.4 46.9 95.0 95.0 2.4 6.2 2.9 127.8 132.3 0.00 0.2766310 83.4
2020-08-01 13:50:00 95.4 22.0 50.6 95.4 95.4 2.2 5.8 3.5 235.9 171.8 0.00 0.2758487 83.5
2020-08-01 13:55:00 95.4 19.4 47.2 95.4 95.4 3.1 5.1 3.2 203.2 204.3 0.00 0.2751066 83.6
2020-08-01 14:00:00 95.3 20.6 48.7 95.3 95.3 1.0 4.2 2.0 194.2 187.4 0.00 0.2741120 83.8
2020-08-01 14:05:00 94.9 20.9 48.8 94.9 94.9 5.3 5.5 3.2 40.9 307.0 0.00 0.2728111 83.9
2020-08-01 14:10:00 95.4 20.7 48.9 95.4 95.4 2.1 4.9 2.9 113.9 101.3 0.00 0.2716779 84.0
2020-08-01 14:15:00 96.4 19.6 48.3 96.4 96.4 4.6 5.1 3.4 86.0 145.3 0.00 0.2705861 84.2
2020-08-01 14:20:00 95.9 19.2 47.3 95.9 95.9 7.4 9.7 5.4 70.3 93.6 0.00 0.2691215 84.3
2020-08-01 14:25:00 94.7 20.3 47.8 94.7 94.7 1.7 8.5 4.7 120.3 92.9 0.00 0.2672874 84.5
2020-08-01 14:30:00 95.7 19.8 47.9 95.7 95.7 2.6 6.0 3.6 76.8 119.4 0.00 0.2656049 84.6
2020-08-01 14:35:00 95.1 20.6 48.5 95.1 95.1 6.2 6.3 4.2 64.8 84.2 0.00 0.2640536 84.8
2020-08-01 14:40:00 95.5 20.1 48.2 95.5 95.5 4.4 6.7 3.7 53.6 64.3 0.00 0.2621754 84.9
2020-08-01 14:45:00 95.1 19.7 47.3 95.1 95.1 3.5 8.0 5.0 203.6 73.7 0.00 0.2599992 85.1
2020-08-01 14:50:00 95.1 20.4 48.2 95.1 95.1 2.1 5.6 3.5 287.8 162.9 0.00 0.2579744 85.2
2020-08-01 14:55:00 95.7 20.1 48.3 95.7 95.7 8.7 9.9 5.6 50.8 29.1 0.00 0.2557042 85.4
2020-08-01 15:00:00 95.4 21.3 49.7 95.4 95.4 2.1 7.2 4.3 111.9 99.5 0.00 0.2529280 85.5
2020-08-01 15:05:00 97.4 19.7 49.2 97.4 97.4 4.0 5.6 3.1 176.2 143.4 0.00 0.2504978 85.7
2020-08-01 15:10:00 97.3 20.0 49.5 97.3 97.3 6.3 6.3 3.2 15.0 98.6 0.00 0.2481741 85.9
2020-08-01 15:15:00 96.5 20.3 49.3 96.5 96.5 4.7 11.0 6.3 87.3 68.4 0.00 0.2451521 86.0
2020-08-01 15:20:00 96.5 20.2 49.2 96.5 96.5 2.2 6.2 3.6 63.0 57.2 0.00 0.2423881 86.1
2020-08-01 15:25:00 96.5 20.9 50.1 96.5 96.5 2.1 8.0 4.0 110.0 89.7 0.00 0.2396394 86.3
2020-08-01 15:30:00 97.1 20.2 49.6 97.1 97.1 3.1 3.3 2.0 24.0 27.7 0.00 0.2371732 86.4
2020-08-01 15:35:00 97.2 21.6 51.5 97.2 97.2 4.9 6.0 3.5 162.7 266.5 0.00 0.2341993 86.6
2020-08-01 15:40:00 95.7 21.9 50.6 95.7 95.7 4.4 7.1 5.6 240.3 231.4 0.00 0.2311471 86.7
2020-08-01 15:45:00 97.7 20.4 50.4 97.7 97.7 3.7 4.7 2.7 192.1 175.3 0.00 0.2280739 86.8
2020-08-01 15:50:00 98.2 19.8 49.9 98.2 98.2 4.0 6.7 4.3 186.8 176.8 0.00 0.2246233 86.9
2020-08-01 15:55:00 98.5 19.6 49.9 98.5 98.5 4.0 5.8 3.4 150.4 173.7 0.00 0.2209240 87.0
2020-08-01 16:00:00 98.0 20.3 50.5 98.0 98.0 2.8 6.0 3.4 240.1 188.4 0.00 0.2175868 87.2
2020-08-01 16:05:00 98.8 19.7 50.3 98.8 98.8 1.3 4.6 3.0 174.0 184.4 0.00 0.2133566 87.2
2020-08-01 16:10:00 99.7 18.4 49.2 99.7 99.7 3.8 5.1 2.5 116.6 119.5 0.00 0.2101185 87.4
2020-08-01 16:15:00 98.4 19.0 49.1 98.4 98.4 3.7 5.1 3.4 60.2 66.8 0.00 0.2077701 87.4
2020-08-01 16:20:00 98.4 20.0 50.5 98.4 98.4 2.8 4.9 2.9 226.6 79.0 0.00 0.2062964 87.5
2020-08-01 16:25:00 99.4 18.9 49.8 99.4 99.4 3.7 4.7 2.6 0.8 54.9 0.00 0.1912264 87.5
2020-08-01 16:30:00 99.1 18.5 49.0 99.1 99.1 3.3 4.9 3.7 34.6 11.3 0.00 0.2027764 87.7
2020-08-01 16:35:00 97.3 18.6 47.6 97.3 97.3 4.9 8.1 5.4 80.1 84.1 0.00 0.1682266 87.7
2020-08-01 16:40:00 97.3 19.3 48.6 97.3 97.3 2.1 6.9 4.0 110.3 93.5 0.00 0.1709618 87.8
2020-08-01 16:45:00 97.6 18.6 47.8 97.6 97.6 5.8 7.1 3.1 0.6 58.9 0.00 0.1571224 87.9
2020-08-01 16:50:00 97.1 18.8 47.7 97.1 97.1 2.8 8.3 3.8 173.1 70.6 0.00 0.1459264 87.9
2020-08-01 16:55:00 97.1 19.3 48.5 97.1 97.1 5.3 6.7 3.9 5.4 55.7 0.00 0.1378876 88.0
2020-08-01 17:00:00 97.3 19.1 48.3 97.3 97.3 3.5 6.0 3.6 0.8 41.1 0.00 0.1267843 88.1
2020-08-01 17:05:00 96.8 19.0 47.7 96.8 96.8 3.3 6.0 3.9 85.9 46.2 0.00 0.1077938 88.1
2020-08-01 17:10:00 97.3 18.6 47.6 97.3 97.3 3.0 6.0 2.9 109.1 114.8 0.00 0.0868349 88.2
2020-08-01 17:15:00 97.0 18.8 47.7 97.0 97.0 2.1 4.9 2.6 134.3 91.0 0.00 0.0807987 88.3
2020-08-01 17:20:00 96.7 19.0 47.8 96.7 96.7 4.4 4.7 3.2 26.1 79.0 0.00 0.0760359 88.3
2020-08-01 17:25:00 96.5 20.0 48.8 96.5 96.5 1.7 4.6 1.8 171.3 38.0 0.00 0.0733965 88.3
2020-08-01 17:30:00 96.4 19.4 47.9 96.4 96.4 1.9 3.7 2.1 270.0 228.3 0.00 0.0713282 88.3
2020-08-01 17:35:00 96.1 20.4 49.1 96.1 96.1 4.0 4.0 2.2 195.4 238.7 0.00 0.0642964 88.3
2020-08-01 17:40:00 94.8 23.6 52.0 94.8 94.8 4.4 4.4 3.5 240.5 225.2 0.00 0.0601633 88.3
2020-08-01 17:45:00 95.1 19.8 47.5 95.1 95.1 1.7 7.1 4.0 198.9 201.6 0.00 0.0572843 88.3
2020-08-01 17:50:00 95.5 19.6 47.6 95.5 95.5 1.0 3.7 2.2 250.7 193.4 0.00 0.0570130 88.3
2020-08-01 17:55:00 94.9 23.0 51.4 94.9 94.9 2.1 3.5 2.1 228.1 243.0 0.00 0.0571986 88.3
2020-08-01 18:00:00 95.0 23.7 52.2 95.0 95.0 0.0 2.6 1.1 161.5 222.6 0.00 0.0583643 88.3
2020-08-01 18:05:00 95.8 22.3 51.3 95.8 95.8 1.0 3.0 1.8 197.7 166.2 0.00 0.0729999 88.3
2020-08-01 18:10:00 96.0 24.0 53.5 96.0 96.0 2.2 2.8 2.0 208.7 197.5 0.00 0.0719307 88.2
2020-08-01 18:15:00 96.9 19.6 48.6 96.9 96.9 2.8 4.4 2.4 157.1 146.6 0.00 0.1047599 88.2
2020-08-01 18:20:00 97.3 18.6 47.6 97.3 97.3 2.6 5.6 3.4 53.2 86.0 0.00 0.0888242 88.2
2020-08-01 18:25:00 98.0 18.6 48.2 98.0 98.0 2.4 5.1 2.6 142.7 110.1 0.00 0.0733041 88.1
2020-08-01 18:30:00 97.9 18.1 47.4 97.9 97.9 2.2 4.0 2.7 195.1 106.9 0.00 0.0525988 88.1
2020-08-01 18:35:00 97.7 18.2 47.4 97.7 97.7 1.5 4.0 1.9 139.7 105.2 0.00 0.0579852 88.1
2020-08-01 18:40:00 96.6 22.1 51.6 96.6 96.6 3.0 8.0 4.2 145.6 130.6 0.00 0.0462484 88.0
2020-08-01 18:45:00 95.9 22.8 51.9 95.9 95.9 3.8 8.1 5.0 141.4 119.9 0.00 0.0658560 88.0
2020-08-01 18:50:00 95.1 22.6 51.0 95.1 95.1 5.5 8.0 5.1 148.1 121.6 0.00 0.0396540 88.0
2020-08-01 18:55:00 94.5 23.4 51.4 94.5 94.5 5.6 8.7 5.2 171.0 132.6 0.00 0.0277063 88.0
2020-08-01 19:00:00 93.5 24.4 51.7 93.5 93.5 6.3 6.9 4.6 110.9 130.2 0.00 0.0266969 87.9
2020-08-01 19:05:00 93.4 24.2 51.4 93.4 93.4 3.7 7.2 4.5 165.6 119.9 0.00 0.0251229 87.9
2020-08-01 19:10:00 92.9 24.2 51.0 92.9 92.9 3.3 8.7 4.9 166.1 135.0 0.00 0.0179597 87.8
2020-08-01 19:15:00 92.4 24.9 51.4 92.4 92.4 3.5 6.9 4.3 153.3 143.7 0.00 0.0137317 87.8
2020-08-01 19:20:00 91.9 25.2 51.3 91.9 91.9 4.7 5.8 3.6 179.1 146.1 0.00 0.0109490 87.7
2020-08-01 19:25:00 91.4 25.5 51.2 91.4 91.4 0.0 5.5 3.3 126.1 139.1 0.00 0.0082371 87.7
2020-08-01 19:30:00 91.1 26.0 51.4 91.1 91.1 3.0 4.6 2.5 92.8 144.2 0.00 0.0061022 87.6
2020-08-01 19:35:00 90.7 26.3 51.5 90.7 90.7 1.3 5.5 3.2 148.1 135.2 0.00 0.0041914 87.5
2020-08-01 19:40:00 90.4 26.5 51.3 90.4 90.4 3.7 5.1 2.7 120.9 135.6 0.00 0.0029765 87.5
2020-08-01 19:45:00 90.2 26.5 51.2 90.2 90.2 1.9 5.1 2.8 135.3 133.9 0.00 0.0023853 87.4
2020-08-01 19:50:00 90.1 26.5 51.2 90.1 90.1 3.5 4.4 2.7 166.7 136.3 0.00 0.0015700 87.3
2020-08-01 19:55:00 90.2 26.3 51.0 90.2 90.2 1.0 4.7 2.5 147.5 127.2 0.00 0.0010696 87.2
2020-08-01 20:00:00 90.0 26.6 51.1 90.0 90.0 2.8 3.5 2.3 167.1 148.3 0.00 0.0007164 87.2
2020-08-01 20:05:00 89.7 26.4 50.7 89.7 89.7 3.7 5.5 3.1 110.1 148.0 0.00 0.0004561 87.1
2020-08-01 20:10:00 89.9 24.1 48.4 89.9 89.9 5.3 8.7 4.2 120.8 117.6 0.00 0.0002018 87.0
2020-08-01 20:15:00 90.1 23.7 48.1 90.1 90.1 4.7 6.2 4.2 103.5 118.1 0.00 0.0000787 87.0
2020-08-01 20:20:00 90.0 23.4 47.7 90.0 90.0 4.4 6.0 4.0 151.6 127.2 0.00 0.0000121 86.9
2020-08-01 20:25:00 89.9 22.0 46.0 89.9 89.9 3.0 6.3 4.3 128.3 120.6 0.00 0.0000000 86.8
2020-08-01 20:30:00 89.7 22.1 46.0 89.7 89.7 4.0 5.8 3.5 72.7 120.5 0.00 0.0000000 86.7
2020-08-01 20:35:00 89.5 23.1 47.0 89.5 89.5 3.0 4.7 2.7 123.0 119.2 0.00 0.0000000 86.7
2020-08-01 20:40:00 88.8 27.4 50.9 88.8 88.8 1.5 6.3 3.6 0.2 261.9 0.00 0.0000000 86.6
2020-08-01 20:45:00 86.1 40.2 59.1 86.1 85.6 6.3 9.4 3.2 342.5 288.8 0.00 0.0000020 86.5
2020-08-01 20:50:00 83.4 38.8 55.7 83.4 83.4 3.3 7.6 4.2 262.9 271.2 0.00 0.0000565 86.4
2020-08-01 20:55:00 80.4 53.0 61.7 80.4 81.5 5.3 6.0 3.7 136.4 206.9 0.01 0.0000606 86.4
2020-08-01 21:00:00 78.7 54.3 60.8 78.7 78.7 3.1 9.2 5.1 187.7 188.9 0.00 0.0000585 86.3
2020-08-01 21:05:00 80.8 40.8 54.7 80.8 80.6 8.0 9.9 6.7 55.6 79.8 0.00 0.0000404 86.2
2020-08-01 21:10:00 80.1 47.7 58.4 80.1 80.6 17.2 18.9 12.0 54.8 47.9 0.01 0.0000061 86.1
2020-08-01 21:15:00 75.1 58.6 59.6 75.1 75.1 13.3 19.6 13.1 96.7 56.6 0.04 0.0000020 86.1
2020-08-01 21:20:00 74.5 59.0 59.2 74.5 74.5 14.0 14.2 10.8 62.1 60.9 0.01 0.0000000 86.0
2020-08-01 21:25:00 73.9 60.1 59.1 73.9 73.9 11.0 15.5 12.7 90.5 64.3 0.05 0.0000061 85.9
2020-08-01 21:30:00 73.0 60.9 58.7 73.0 73.0 11.5 16.4 12.4 62.5 69.8 0.05 0.0000464 85.9
2020-08-01 21:35:00 72.3 63.7 59.3 72.3 72.3 10.6 11.2 9.9 78.4 72.5 0.01 0.0000586 85.8
2020-08-01 21:40:00 73.0 61.5 59.0 73.0 73.0 5.8 13.7 10.3 152.0 99.6 0.01 0.0000525 85.7
2020-08-01 21:45:00 72.6 62.5 59.1 72.6 72.6 5.3 7.8 5.1 93.7 102.5 0.01 0.0000141 85.6
2020-08-01 21:50:00 73.0 62.5 59.5 73.0 73.0 4.2 6.5 4.2 92.2 93.5 0.00 0.0000101 85.5
2020-08-01 21:55:00 72.6 66.7 60.9 72.6 72.6 2.6 3.3 1.9 203.2 116.2 0.00 0.0000000 85.4
2020-08-01 22:00:00 72.6 68.0 61.4 72.6 72.6 2.8 4.2 2.5 50.6 136.5 0.00 0.0000000 85.3
2020-08-01 22:05:00 72.7 67.8 61.4 72.7 72.7 2.8 3.5 2.1 144.2 121.9 0.00 0.0000000 85.2
2020-08-01 22:10:00 73.5 67.6 62.1 73.5 73.5 2.4 6.3 3.0 127.3 115.4 0.00 0.0000000 85.1
2020-08-01 22:15:00 73.4 69.4 62.8 73.4 73.4 1.3 4.2 2.7 128.5 137.8 0.00 0.0000000 85.0
2020-08-01 22:20:00 73.1 70.6 63.0 73.1 73.1 4.2 4.7 3.1 214.4 176.5 0.00 0.0000000 84.9
2020-08-01 22:25:00 72.0 70.8 62.0 72.0 72.0 1.2 5.8 3.7 250.7 227.9 0.00 0.0000000 84.8
2020-08-01 22:30:00 71.7 70.6 61.7 71.7 71.7 3.8 4.2 2.0 338.8 282.5 0.00 0.0000000 84.7
2020-08-01 22:35:00 72.5 63.7 59.5 72.5 72.5 1.2 3.7 1.7 305.9 320.9 0.00 0.0000000 84.6
2020-08-01 22:40:00 72.7 71.4 62.9 72.7 72.7 3.1 3.1 1.6 215.9 242.8 0.00 0.0000000 84.6
2020-08-01 22:45:00 72.8 72.5 63.5 72.8 72.8 5.3 5.3 3.1 32.2 7.4 0.00 0.0000000 84.5
2020-08-01 22:50:00 75.9 52.9 57.5 75.9 75.9 4.4 7.2 4.7 59.0 65.3 0.00 0.0000000 84.4
2020-08-01 22:55:00 77.1 51.3 57.8 77.1 77.1 5.5 6.2 4.7 36.9 58.6 0.00 0.0000000 84.3
2020-08-01 23:00:00 77.1 55.8 60.1 77.1 77.1 6.2 7.8 5.7 13.5 35.6 0.00 0.0000000 84.3
2020-08-01 23:05:00 77.8 45.2 54.9 77.8 77.8 8.0 12.6 10.0 74.7 53.2 0.00 0.0000000 84.2
2020-08-01 23:10:00 77.8 44.4 54.4 77.8 77.8 6.7 10.8 7.9 89.1 72.9 0.00 0.0000000 84.2
2020-08-01 23:15:00 77.6 43.3 53.6 77.6 77.6 10.1 12.8 7.9 55.7 68.2 0.00 0.0000000 84.1
2020-08-01 23:20:00 77.7 42.8 53.3 77.7 77.7 10.1 11.5 9.3 51.5 52.2 0.00 0.0000000 84.0
2020-08-01 23:25:00 77.3 46.1 55.0 77.3 77.3 4.7 11.7 8.5 29.4 38.5 0.00 0.0000000 84.0
2020-08-01 23:30:00 77.8 42.3 53.1 77.8 77.8 7.4 9.9 7.8 48.4 45.4 0.00 0.0000040 83.9
2020-08-01 23:35:00 77.8 41.9 52.8 77.8 77.8 5.3 7.2 4.6 45.8 55.2 0.00 0.0000040 83.8
2020-08-01 23:40:00 77.9 42.5 53.3 77.9 77.9 3.8 5.5 3.8 28.2 41.8 0.00 0.0000000 83.8
2020-08-01 23:45:00 78.1 41.5 52.9 78.1 78.1 2.2 5.1 3.2 315.7 356.2 0.00 0.0000081 83.7
2020-08-01 23:50:00 78.0 46.0 55.5 78.0 78.0 2.6 5.3 3.0 277.4 347.9 0.00 0.0000020 83.6
2020-08-01 23:55:00 76.2 55.5 59.1 76.2 76.2 0.0 2.4 1.0 195.5 185.5 0.00 0.0000101 83.6
2020-08-02 00:00:00 74.5 52.6 56.1 74.5 74.5 3.7 5.1 1.8 198.2 202.8 0.00 0.0000202 83.5

Data is courtesy of the NM Climate Center. DO NOT USE IN LEGAL PROCEEDINGS.